createdAt,value
2017-09-09T00:00:05.163Z,22
2017-09-09T00:02:05.123Z,22
2017-09-09T00:04:05.473Z,22
2017-09-09T00:06:07.447Z,22
2017-09-09T00:08:04.825Z,22
2017-09-09T00:10:05.099Z,22
2017-09-09T00:12:04.857Z,22
2017-09-09T00:14:05.190Z,22
2017-09-09T00:16:05.381Z,22
2017-09-09T00:18:05.448Z,22
2017-09-09T00:20:05.955Z,22
2017-09-09T00:22:07.550Z,21.9
2017-09-09T00:24:05.520Z,22
2017-09-09T00:26:12.926Z,22
2017-09-09T00:28:05.163Z,21.9
2017-09-09T00:30:07.228Z,21.9
2017-09-09T00:32:04.986Z,22
2017-09-09T00:34:04.688Z,21.9
2017-09-09T00:36:04.747Z,22
2017-09-09T00:38:04.741Z,21.9
2017-09-09T00:40:05.407Z,21.9
2017-09-09T00:42:12.685Z,21.9
2017-09-09T00:44:07.283Z,21.9
2017-09-09T00:46:05.484Z,21.9
2017-09-09T00:48:04.947Z,22
2017-09-09T00:50:07.971Z,21.9
2017-09-09T00:52:07.543Z,22
2017-09-09T00:54:04.727Z,21.9
2017-09-09T00:56:06.798Z,21.9
2017-09-09T00:58:05.511Z,21.9
2017-09-09T01:00:09.770Z,22
2017-09-09T01:02:04.767Z,22
2017-09-09T01:04:05.401Z,22
2017-09-09T01:06:07.645Z,22
2017-09-09T01:08:05.698Z,22
2017-09-09T01:10:04.628Z,22
2017-09-09T01:12:07.391Z,22
2017-09-09T01:14:08.738Z,22
2017-09-09T01:16:05.501Z,22
2017-09-09T01:18:05.336Z,22
2017-09-09T01:20:04.870Z,22
2017-09-09T01:22:08.000Z,22.1
2017-09-09T01:24:04.875Z,22
2017-09-09T01:26:10.595Z,22
2017-09-09T01:28:05.549Z,22.1
2017-09-09T01:30:07.592Z,22.1
2017-09-09T01:32:04.834Z,22.1
2017-09-09T01:34:05.748Z,22.1
2017-09-09T01:36:06.463Z,22.1
2017-09-09T01:38:05.285Z,22
2017-09-09T01:40:07.721Z,22
2017-09-09T01:42:05.073Z,22.1
2017-09-09T01:44:05.070Z,22.1
2017-09-09T01:46:05.245Z,22
2017-09-09T01:48:07.893Z,22
2017-09-09T01:50:05.117Z,22.1
2017-09-09T01:52:04.840Z,22.1
2017-09-09T01:54:04.739Z,22
2017-09-09T01:56:09.793Z,22
2017-09-09T01:58:05.535Z,22.1
2017-09-09T02:00:05.425Z,22.1
2017-09-09T02:02:05.350Z,22
2017-09-09T02:04:05.138Z,22
2017-09-09T02:06:06.317Z,22
2017-09-09T02:08:05.339Z,22
2017-09-09T02:10:05.213Z,22
2017-09-09T02:12:06.171Z,22
2017-09-09T02:14:05.079Z,22
2017-09-09T02:16:05.392Z,22
2017-09-09T02:18:08.314Z,22
2017-09-09T02:20:05.485Z,22
2017-09-09T02:22:05.241Z,22
2017-09-09T02:24:05.533Z,22
2017-09-09T02:26:10.573Z,22
2017-09-09T02:28:05.518Z,22
2017-09-09T02:30:04.961Z,22
2017-09-09T02:32:05.190Z,21.9
2017-09-09T02:34:05.554Z,21.9
2017-09-09T02:36:06.310Z,22
2017-09-09T02:38:05.343Z,22
2017-09-09T02:40:04.737Z,22
2017-09-09T02:42:05.410Z,21.9
2017-09-09T02:44:05.288Z,22
2017-09-09T02:46:05.020Z,21.9
2017-09-09T02:48:04.984Z,22
2017-09-09T02:50:05.399Z,21.9
2017-09-09T02:52:10.152Z,21.9
2017-09-09T02:54:04.888Z,21.9
2017-09-09T02:56:04.949Z,21.9
2017-09-09T02:58:07.472Z,21.9
2017-09-09T03:00:04.892Z,21.9
2017-09-09T03:02:10.439Z,21.9
2017-09-09T03:04:10.117Z,21.9
2017-09-09T03:06:05.287Z,21.9
2017-09-09T03:08:05.366Z,21.9
2017-09-09T03:10:05.571Z,21.9
2017-09-09T03:12:04.788Z,21.9
2017-09-09T03:14:08.231Z,21.9
2017-09-09T03:16:05.488Z,21.9
2017-09-09T03:18:05.429Z,21.9
2017-09-09T03:20:05.125Z,21.9
2017-09-09T03:22:04.824Z,21.8
2017-09-09T03:24:04.931Z,21.9
2017-09-09T03:26:09.761Z,21.9
2017-09-09T03:28:04.735Z,21.8
2017-09-09T03:30:07.888Z,21.9
2017-09-09T03:32:13.214Z,21.9
2017-09-09T03:34:04.806Z,21.9
2017-09-09T03:36:05.563Z,21.8
2017-09-09T03:38:05.346Z,21.9
2017-09-09T03:40:05.556Z,21.9
2017-09-09T03:42:06.139Z,21.9
2017-09-09T03:44:05.073Z,21.8
2017-09-09T03:46:05.787Z,21.9
2017-09-09T03:48:08.156Z,21.9
2017-09-09T03:50:07.410Z,21.8
2017-09-09T03:52:05.218Z,21.9
2017-09-09T03:54:04.965Z,21.8
2017-09-09T03:56:06.118Z,21.8
2017-09-09T03:58:05.372Z,21.8
2017-09-09T04:00:05.075Z,21.8
2017-09-09T04:02:10.060Z,21.8
2017-09-09T04:04:04.919Z,21.8
2017-09-09T04:06:09.669Z,21.8
2017-09-09T04:08:10.456Z,21.8
2017-09-09T04:10:05.188Z,21.8
2017-09-09T04:12:04.907Z,21.8
2017-09-09T04:14:07.356Z,21.8
2017-09-09T04:16:05.333Z,21.8
2017-09-09T04:18:06.271Z,21.8
2017-09-09T04:20:04.983Z,21.8
2017-09-09T04:22:04.923Z,21.8
2017-09-09T04:24:04.840Z,21.8
2017-09-09T04:26:04.793Z,21.8
2017-09-09T04:28:04.732Z,21.8
2017-09-09T04:30:05.218Z,21.8
2017-09-09T04:32:05.013Z,21.8
2017-09-09T04:34:04.796Z,21.8
2017-09-09T04:36:08.622Z,21.8
2017-09-09T04:38:09.443Z,21.8
2017-09-09T04:40:04.830Z,21.8
2017-09-09T04:42:04.831Z,21.8
2017-09-09T04:44:05.609Z,21.8
2017-09-09T04:46:05.638Z,21.8
2017-09-09T04:48:05.543Z,21.8
2017-09-09T04:50:05.346Z,21.7
2017-09-09T04:52:04.788Z,21.8
2017-09-09T04:54:04.921Z,21.7
2017-09-09T04:56:05.048Z,21.8
2017-09-09T04:58:05.237Z,21.8
2017-09-09T05:00:04.897Z,21.8
2017-09-09T05:02:13.177Z,21.8
2017-09-09T05:04:05.433Z,21.8
2017-09-09T05:06:10.403Z,21.7
2017-09-09T05:08:05.332Z,21.8
2017-09-09T05:10:05.359Z,21.8
2017-09-09T05:12:05.043Z,21.7
2017-09-09T05:14:05.523Z,21.8
2017-09-09T05:16:05.457Z,21.8
2017-09-09T05:18:05.497Z,21.7
2017-09-09T05:20:10.384Z,21.7
2017-09-09T05:22:05.188Z,21.7
2017-09-09T05:24:12.712Z,21.7
2017-09-09T05:26:07.449Z,21.7
2017-09-09T05:28:07.713Z,21.7
2017-09-09T05:30:12.163Z,21.7
2017-09-09T05:32:05.098Z,21.7
2017-09-09T05:34:07.525Z,21.7
2017-09-09T05:36:05.408Z,21.7
2017-09-09T05:38:05.540Z,21.7
2017-09-09T05:40:05.068Z,21.7
2017-09-09T05:42:09.823Z,21.7
2017-09-09T05:44:12.355Z,21.7
2017-09-09T05:46:05.358Z,21.7
2017-09-09T05:48:05.421Z,21.7
2017-09-09T05:50:04.896Z,21.7
2017-09-09T05:52:04.643Z,21.7
2017-09-09T05:54:05.437Z,21.7
2017-09-09T05:56:05.354Z,21.7
2017-09-09T05:58:10.120Z,21.7
2017-09-09T06:00:04.829Z,21.7
2017-09-09T06:02:04.723Z,21.7
2017-09-09T06:04:05.398Z,21.7
2017-09-09T06:06:05.357Z,21.7
2017-09-09T06:08:05.484Z,21.7
2017-09-09T06:10:04.821Z,21.7
2017-09-09T06:12:10.529Z,21.7
2017-09-09T06:14:13.279Z,21.7
2017-09-09T06:16:05.540Z,21.7
2017-09-09T06:18:05.419Z,21.7
2017-09-09T06:20:07.817Z,21.7
2017-09-09T06:22:04.727Z,21.7
2017-09-09T06:24:05.686Z,21.7
2017-09-09T06:26:07.186Z,21.7
2017-09-09T06:28:06.073Z,21.7
2017-09-09T06:30:05.073Z,21.7
2017-09-09T06:32:04.962Z,21.7
2017-09-09T06:34:04.741Z,21.6
2017-09-09T06:36:07.263Z,21.7
2017-09-09T06:38:05.049Z,21.6
2017-09-09T06:40:04.725Z,21.7
2017-09-09T06:42:04.958Z,21.6
2017-09-09T06:44:04.797Z,21.7
2017-09-09T06:46:10.644Z,21.6
2017-09-09T06:48:07.301Z,21.6
2017-09-09T06:50:05.190Z,21.6
2017-09-09T06:52:07.924Z,21.7
2017-09-09T06:54:04.607Z,21.6
2017-09-09T06:56:07.391Z,21.7
2017-09-09T06:58:05.335Z,21.6
2017-09-09T07:00:05.172Z,21.6
2017-09-09T07:02:05.267Z,21.6
2017-09-09T07:04:08.223Z,21.7
2017-09-09T07:06:06.383Z,21.6
2017-09-09T07:08:05.069Z,21.6
2017-09-09T07:10:05.329Z,21.6
2017-09-09T07:12:05.496Z,21.7
2017-09-09T07:14:05.553Z,21.6
2017-09-09T07:16:04.840Z,21.6
2017-09-09T07:18:05.395Z,21.6
2017-09-09T07:20:10.381Z,21.7
2017-09-09T07:22:05.166Z,21.6
2017-09-09T07:24:04.968Z,21.7
2017-09-09T07:26:04.953Z,21.6
2017-09-09T07:28:07.449Z,21.7
2017-09-09T07:30:05.182Z,21.7
2017-09-09T07:32:05.589Z,21.7
2017-09-09T07:34:13.082Z,21.7
2017-09-09T07:36:04.884Z,21.7
2017-09-09T07:38:04.772Z,21.6
2017-09-09T07:40:07.816Z,21.6
2017-09-09T07:42:05.539Z,21.6
2017-09-09T07:44:05.053Z,21.7
2017-09-09T07:46:05.007Z,21.6
2017-09-09T07:48:04.684Z,21.6
2017-09-09T07:50:05.323Z,21.7
2017-09-09T07:52:05.006Z,21.7
2017-09-09T07:54:04.737Z,21.7
2017-09-09T07:56:05.009Z,21.6
2017-09-09T07:58:04.701Z,21.6
2017-09-09T08:00:05.424Z,21.7
2017-09-09T08:02:04.679Z,21.6
2017-09-09T08:04:05.418Z,21.7
2017-09-09T08:06:05.093Z,21.7
2017-09-09T08:08:04.813Z,21.7
2017-09-09T08:10:05.569Z,21.7
2017-09-09T08:12:07.878Z,21.8
2017-09-09T08:14:10.604Z,21.8
2017-09-09T08:16:04.850Z,21.8
2017-09-09T08:18:04.765Z,21.8
2017-09-09T08:20:05.757Z,21.8
2017-09-09T08:22:05.509Z,21.8
2017-09-09T08:24:05.236Z,21.8
2017-09-09T08:26:05.630Z,21.8
2017-09-09T08:28:05.835Z,21.8
2017-09-09T08:30:05.562Z,21.7
2017-09-09T08:32:05.277Z,21.8
2017-09-09T08:34:05.223Z,21.8
2017-09-09T08:36:05.017Z,21.7
2017-09-09T08:38:04.784Z,21.8
2017-09-09T08:40:10.581Z,21.7
2017-09-09T08:42:05.328Z,21.7
2017-09-09T08:44:05.027Z,21.8
2017-09-09T08:46:04.769Z,21.8
2017-09-09T08:48:05.520Z,21.7
2017-09-09T08:50:07.777Z,21.7
2017-09-09T08:52:08.118Z,21.8
2017-09-09T08:54:05.332Z,21.7
2017-09-09T08:56:08.102Z,21.8
2017-09-09T08:58:04.871Z,21.8
2017-09-09T09:00:05.609Z,21.8
2017-09-09T09:02:05.335Z,21.8
2017-09-09T09:04:05.576Z,21.7
2017-09-09T09:06:05.269Z,21.7
2017-09-09T09:08:05.155Z,21.7
2017-09-09T09:10:07.466Z,21.7
2017-09-09T09:12:05.195Z,21.7
2017-09-09T09:14:09.908Z,21.8
2017-09-09T09:16:04.974Z,21.7
2017-09-09T09:18:04.903Z,21.7
2017-09-09T09:20:05.598Z,21.8
2017-09-09T09:22:04.826Z,21.8
2017-09-09T09:24:10.147Z,21.8
2017-09-09T09:26:04.947Z,21.8
2017-09-09T09:28:05.174Z,21.8
2017-09-09T09:30:07.485Z,21.8
2017-09-09T09:32:05.197Z,21.8
2017-09-09T09:34:04.903Z,21.8
2017-09-09T09:36:07.219Z,21.9
2017-09-09T09:38:04.921Z,21.8
2017-09-09T09:40:05.616Z,21.9
2017-09-09T09:42:05.300Z,21.9
2017-09-09T09:44:04.991Z,21.9
2017-09-09T09:46:04.692Z,21.9
2017-09-09T09:48:07.981Z,22
2017-09-09T09:50:04.647Z,22
2017-09-09T09:52:05.347Z,22.2
2017-09-09T09:54:05.088Z,22.1
2017-09-09T09:56:04.840Z,22.1
2017-09-09T09:58:05.513Z,22.1
2017-09-09T10:00:05.338Z,22
2017-09-09T10:02:05.664Z,22
2017-09-09T10:04:13.155Z,22
2017-09-09T10:06:05.855Z,22
2017-09-09T10:08:08.120Z,22
2017-09-09T10:10:05.025Z,22
2017-09-09T10:12:04.847Z,22
2017-09-09T10:14:05.530Z,22
2017-09-09T10:16:05.280Z,22
2017-09-09T10:18:05.067Z,22
2017-09-09T10:20:05.795Z,22
2017-09-09T10:22:07.294Z,22
2017-09-09T10:24:05.284Z,22
2017-09-09T10:26:04.963Z,22
2017-09-09T10:28:05.302Z,22
2017-09-09T10:30:10.746Z,22
2017-09-09T10:32:04.769Z,22
2017-09-09T10:34:06.463Z,22
2017-09-09T10:36:05.222Z,22
2017-09-09T10:38:07.456Z,22
2017-09-09T10:40:05.147Z,22
2017-09-09T10:42:05.163Z,21.9
2017-09-09T10:44:07.492Z,22
2017-09-09T10:46:05.190Z,21.9
2017-09-09T10:48:04.914Z,22
2017-09-09T10:50:05.592Z,22
2017-09-09T10:52:10.284Z,22
2017-09-09T10:54:04.998Z,22
2017-09-09T10:56:07.453Z,22
2017-09-09T10:58:05.169Z,22
2017-09-09T11:00:05.059Z,22
2017-09-09T11:02:04.789Z,22
2017-09-09T11:04:05.689Z,22
2017-09-09T11:06:05.103Z,22
2017-09-09T11:08:05.426Z,22
2017-09-09T11:10:05.419Z,22
2017-09-09T11:12:05.176Z,22
2017-09-09T11:14:05.046Z,22
2017-09-09T11:16:05.019Z,22
2017-09-09T11:18:05.233Z,22
2017-09-09T11:20:04.903Z,22
2017-09-09T11:22:05.622Z,22
2017-09-09T11:24:05.372Z,22
2017-09-09T11:26:05.264Z,22
2017-09-09T11:28:10.061Z,22
2017-09-09T11:30:07.591Z,22.1
2017-09-09T11:32:05.367Z,22.1
2017-09-09T11:34:05.498Z,22.1
2017-09-09T11:36:05.378Z,22
2017-09-09T11:38:05.621Z,22
2017-09-09T11:40:05.209Z,22
2017-09-09T11:42:07.826Z,22
2017-09-09T11:44:05.588Z,22
2017-09-09T11:46:05.865Z,22
2017-09-09T11:48:05.581Z,22
2017-09-09T11:50:05.268Z,21.9
2017-09-09T11:52:05.372Z,22
2017-09-09T11:54:05.095Z,22
2017-09-09T11:56:04.921Z,21.9
2017-09-09T11:58:05.573Z,22
2017-09-09T12:00:05.695Z,22
2017-09-09T12:02:05.224Z,21.9
2017-09-09T12:04:04.971Z,21.9
2017-09-09T12:06:04.887Z,22
2017-09-09T12:08:04.823Z,21.9
2017-09-09T12:10:05.726Z,21.9
2017-09-09T12:12:07.940Z,21.9
2017-09-09T12:14:05.478Z,21.9
2017-09-09T12:16:07.707Z,21.9
2017-09-09T12:18:04.767Z,21.9
2017-09-09T12:20:05.571Z,21.9
2017-09-09T12:22:04.835Z,21.9
2017-09-09T12:24:05.548Z,21.9
2017-09-09T12:26:04.963Z,21.9
2017-09-09T12:28:04.703Z,21.9
2017-09-09T12:30:07.942Z,21.9
2017-09-09T12:32:05.030Z,21.9
2017-09-09T12:34:05.466Z,21.9
2017-09-09T12:36:05.145Z,21.9
2017-09-09T12:38:05.253Z,21.9
2017-09-09T12:40:04.983Z,21.9
2017-09-09T12:42:04.728Z,21.9
2017-09-09T12:44:10.451Z,21.9
2017-09-09T12:46:04.691Z,21.9
2017-09-09T12:48:05.404Z,21.9
2017-09-09T12:50:07.952Z,21.9
2017-09-09T12:52:04.634Z,21.9
2017-09-09T12:54:10.397Z,21.9
2017-09-09T12:56:07.651Z,21.9
2017-09-09T12:58:05.436Z,21.9
2017-09-09T13:00:05.334Z,21.9
2017-09-09T13:02:05.048Z,21.9
2017-09-09T13:04:05.127Z,21.9
2017-09-09T13:06:04.995Z,21.9
2017-09-09T13:08:04.717Z,21.9
2017-09-09T13:10:07.169Z,21.9
2017-09-09T13:12:09.847Z,21.9
2017-09-09T13:14:05.292Z,21.9
2017-09-09T13:16:04.976Z,21.9
2017-09-09T13:18:07.414Z,21.9
2017-09-09T13:20:13.721Z,21.9
2017-09-09T13:22:09.621Z,21.9
2017-09-09T13:24:13.125Z,21.9
2017-09-09T13:26:04.810Z,21.9
2017-09-09T13:28:05.506Z,21.9
2017-09-09T13:30:05.209Z,21.9
2017-09-09T13:32:05.442Z,21.9
2017-09-09T13:34:05.097Z,21.9
2017-09-09T13:36:07.323Z,21.9
2017-09-09T13:38:07.710Z,21.9
2017-09-09T13:40:04.920Z,21.9
2017-09-09T13:42:04.676Z,21.9
2017-09-09T13:44:10.496Z,21.9
2017-09-09T13:46:05.250Z,21.9
2017-09-09T13:48:05.000Z,21.9
2017-09-09T13:50:09.844Z,21.9
2017-09-09T13:52:07.046Z,21.9
2017-09-09T13:54:08.152Z,21.9
2017-09-09T13:56:05.305Z,21.9
2017-09-09T13:58:04.992Z,21.9
2017-09-09T14:00:04.764Z,21.8
2017-09-09T14:02:05.709Z,21.9
2017-09-09T14:04:18.281Z,21.8
2017-09-09T14:06:04.971Z,21.8
2017-09-09T14:08:04.686Z,21.9
2017-09-09T14:10:04.900Z,21.8
2017-09-09T14:12:04.724Z,21.8
2017-09-09T14:14:05.518Z,21.8
2017-09-09T14:16:05.334Z,21.8
2017-09-09T14:18:05.526Z,21.8
2017-09-09T14:20:05.200Z,21.8
2017-09-09T14:22:05.622Z,21.8
2017-09-09T14:24:05.599Z,21.8
2017-09-09T14:26:05.124Z,21.8
2017-09-09T14:28:06.267Z,21.8
2017-09-09T14:30:05.625Z,21.8
2017-09-09T14:32:05.077Z,21.8
2017-09-09T14:34:10.396Z,21.8
2017-09-09T14:36:05.360Z,21.9
2017-09-09T14:38:07.608Z,21.8
2017-09-09T14:40:08.003Z,21.9
2017-09-09T14:42:05.040Z,21.8
2017-09-09T14:44:09.838Z,21.9
2017-09-09T14:46:05.524Z,21.8
2017-09-09T14:48:11.248Z,21.9
2017-09-09T14:50:05.081Z,21.9
2017-09-09T14:52:07.324Z,21.9
2017-09-09T14:54:05.441Z,21.9
2017-09-09T14:56:05.607Z,21.9
2017-09-09T14:58:05.303Z,21.9
2017-09-09T15:00:08.105Z,21.9
2017-09-09T15:02:07.426Z,21.9
2017-09-09T15:04:07.930Z,21.9
2017-09-09T15:06:04.674Z,21.9
2017-09-09T15:08:08.119Z,21.9
2017-09-09T15:10:04.837Z,21.9
2017-09-09T15:12:08.114Z,21.9
2017-09-09T15:14:05.154Z,21.9
2017-09-09T15:16:07.406Z,21.9
2017-09-09T15:18:05.490Z,21.9
2017-09-09T15:20:04.791Z,21.9
2017-09-09T15:22:08.165Z,21.9
2017-09-09T15:24:04.854Z,21.9
2017-09-09T15:26:05.204Z,21.9
2017-09-09T15:28:04.904Z,21.9
2017-09-09T15:30:04.760Z,21.9
2017-09-09T15:32:05.650Z,21.9
2017-09-09T15:34:05.378Z,21.9
2017-09-09T15:36:05.139Z,21.9
2017-09-09T15:38:05.297Z,21.9
2017-09-09T15:40:04.997Z,21.9
2017-09-09T15:42:07.246Z,21.9
2017-09-09T15:44:05.164Z,21.9
2017-09-09T15:46:05.123Z,21.9
2017-09-09T15:48:04.833Z,21.9
2017-09-09T15:50:05.613Z,21.9
2017-09-09T15:52:05.354Z,21.9
2017-09-09T15:54:05.167Z,21.9
2017-09-09T15:56:05.018Z,21.9
2017-09-09T15:58:07.381Z,21.9
2017-09-09T16:00:05.129Z,21.9
2017-09-09T16:02:05.060Z,21.9
2017-09-09T16:04:07.274Z,21.9
2017-09-09T16:06:05.014Z,21.9
2017-09-09T16:08:04.742Z,21.9
2017-09-09T16:10:05.444Z,21.9
2017-09-09T16:12:04.824Z,21.9
2017-09-09T16:14:05.572Z,21.9
2017-09-09T16:16:05.250Z,21.9
2017-09-09T16:18:05.221Z,21.9
2017-09-09T16:20:04.970Z,21.9
2017-09-09T16:22:05.243Z,21.8
2017-09-09T16:24:04.936Z,21.8
2017-09-09T16:26:04.638Z,21.8
2017-09-09T16:28:05.360Z,21.9
2017-09-09T16:30:05.232Z,21.8
2017-09-09T16:32:05.305Z,21.9
2017-09-09T16:34:05.635Z,21.9
2017-09-09T16:36:05.414Z,21.9
2017-09-09T16:38:07.735Z,21.8
2017-09-09T16:40:11.750Z,21.9
2017-09-09T16:42:08.041Z,21.8
2017-09-09T16:44:04.762Z,21.9
2017-09-09T16:46:05.648Z,21.8
2017-09-09T16:48:05.373Z,21.8
2017-09-09T16:50:05.143Z,21.8
2017-09-09T16:52:05.259Z,21.8
2017-09-09T16:54:04.925Z,21.8
2017-09-09T16:56:07.684Z,21.8
2017-09-09T16:58:05.579Z,21.8
2017-09-09T17:00:05.333Z,21.8
2017-09-09T17:02:07.597Z,21.8
2017-09-09T17:04:05.475Z,21.8
2017-09-09T17:06:05.229Z,21.8
2017-09-09T17:08:04.951Z,21.8
2017-09-09T17:10:05.352Z,21.8
2017-09-09T17:12:07.460Z,21.8
2017-09-09T17:14:05.145Z,21.8
2017-09-09T17:16:07.398Z,21.8
2017-09-09T17:18:05.301Z,21.8
2017-09-09T17:20:05.018Z,21.8
2017-09-09T17:22:04.829Z,21.8
2017-09-09T17:24:05.532Z,21.8
2017-09-09T17:26:05.212Z,21.8
2017-09-09T17:28:05.036Z,21.8
2017-09-09T17:30:07.471Z,21.8
2017-09-09T17:32:05.169Z,21.8
2017-09-09T17:34:05.067Z,21.8
2017-09-09T17:36:05.099Z,21.8
2017-09-09T17:38:05.402Z,21.8
2017-09-09T17:40:05.132Z,21.8
2017-09-09T17:42:04.885Z,21.8
2017-09-09T17:44:04.889Z,21.8
2017-09-09T17:46:05.694Z,21.8
2017-09-09T17:48:05.378Z,21.8
2017-09-09T17:50:05.090Z,21.8
2017-09-09T17:52:09.731Z,21.8
2017-09-09T17:54:05.493Z,21.8
2017-09-09T17:56:05.215Z,21.8
2017-09-09T17:58:04.884Z,21.8
2017-09-09T18:00:05.113Z,21.8
2017-09-09T18:02:07.830Z,21.8
2017-09-09T18:04:05.674Z,21.8
2017-09-09T18:06:05.365Z,21.8
2017-09-09T18:08:05.750Z,21.8
2017-09-09T18:10:05.616Z,21.8
2017-09-09T18:12:04.947Z,21.8
2017-09-09T18:14:04.641Z,21.8
2017-09-09T18:16:05.508Z,21.8
2017-09-09T18:18:05.423Z,21.8
2017-09-09T18:20:05.117Z,21.8
2017-09-09T18:22:05.367Z,21.8
2017-09-09T18:24:10.166Z,21.8
2017-09-09T18:26:04.898Z,21.8
2017-09-09T18:28:05.610Z,21.8
2017-09-09T18:30:05.302Z,21.8
2017-09-09T18:32:04.953Z,21.8
2017-09-09T18:34:05.335Z,21.8
2017-09-09T18:36:05.053Z,21.8
2017-09-09T18:38:07.378Z,21.8
2017-09-09T18:40:07.637Z,21.8
2017-09-09T18:42:05.324Z,21.8
2017-09-09T18:44:05.043Z,21.8
2017-09-09T18:46:07.968Z,21.8
2017-09-09T18:48:04.754Z,21.8
2017-09-09T18:50:05.449Z,21.8
2017-09-09T18:52:04.841Z,21.8
2017-09-09T18:54:07.596Z,21.8
2017-09-09T18:56:05.688Z,21.8
2017-09-09T18:58:05.367Z,21.8
2017-09-09T19:00:05.116Z,21.8
2017-09-09T19:02:05.504Z,21.8
2017-09-09T19:04:05.405Z,21.8
2017-09-09T19:06:05.079Z,21.8
2017-09-09T19:08:04.741Z,21.8
2017-09-09T19:10:05.513Z,21.7
2017-09-09T19:12:05.260Z,21.7
2017-09-09T19:14:05.000Z,21.7
2017-09-09T19:16:04.936Z,21.7
2017-09-09T19:18:10.485Z,21.7
2017-09-09T19:20:04.750Z,21.7
2017-09-09T19:22:05.041Z,21.7
2017-09-09T19:24:04.772Z,21.7
2017-09-09T19:26:05.513Z,21.7
2017-09-09T19:28:05.362Z,21.7
2017-09-09T19:30:05.063Z,21.7
2017-09-09T19:32:09.759Z,21.7
2017-09-09T19:34:05.351Z,21.7
2017-09-09T19:36:05.051Z,21.7
2017-09-09T19:38:05.509Z,21.7
2017-09-09T19:40:10.261Z,21.7
2017-09-09T19:42:07.511Z,21.7
2017-09-09T19:44:05.343Z,21.7
2017-09-09T19:46:04.633Z,21.7
2017-09-09T19:48:05.361Z,21.7
2017-09-09T19:50:05.081Z,21.7
2017-09-09T19:52:05.001Z,21.7
2017-09-09T19:54:04.754Z,21.7
2017-09-09T19:56:13.092Z,21.7
2017-09-09T19:58:04.828Z,21.7
2017-09-09T20:00:05.662Z,21.7
2017-09-09T20:02:05.362Z,21.7
2017-09-09T20:04:10.197Z,21.8
2017-09-09T20:06:04.859Z,21.7
2017-09-09T20:08:05.049Z,21.8
2017-09-09T20:10:04.876Z,21.8
2017-09-09T20:12:05.561Z,21.7
2017-09-09T20:14:05.255Z,21.7
2017-09-09T20:16:10.735Z,21.8
2017-09-09T20:18:04.764Z,21.7
2017-09-09T20:20:05.487Z,21.8
2017-09-09T20:22:05.330Z,21.8
2017-09-09T20:24:05.033Z,21.8
2017-09-09T20:26:05.211Z,21.8
2017-09-09T20:28:05.715Z,21.8
2017-09-09T20:30:12.988Z,21.8
2017-09-09T20:32:05.105Z,21.8
2017-09-09T20:34:04.822Z,21.8
2017-09-09T20:36:05.648Z,21.8
2017-09-09T20:38:10.396Z,21.7
2017-09-09T20:40:05.353Z,21.8
2017-09-09T20:42:05.003Z,21.8
2017-09-09T20:44:05.257Z,21.8
2017-09-09T20:46:05.134Z,21.8
2017-09-09T20:48:04.967Z,21.8
2017-09-09T20:50:07.521Z,21.7
2017-09-09T20:52:07.948Z,21.7
2017-09-09T20:54:05.170Z,21.7
2017-09-09T20:56:05.410Z,21.8
2017-09-09T20:58:04.836Z,21.7
2017-09-09T21:00:05.542Z,21.7
2017-09-09T21:02:05.283Z,21.8
2017-09-09T21:04:05.680Z,21.7
2017-09-09T21:06:05.535Z,21.7
2017-09-09T21:08:05.253Z,21.7
2017-09-09T21:10:05.528Z,21.7
2017-09-09T21:12:07.292Z,21.7
2017-09-09T21:14:04.991Z,21.7
2017-09-09T21:16:07.439Z,21.7
2017-09-09T21:18:07.463Z,21.7
2017-09-09T21:20:10.142Z,21.7
2017-09-09T21:22:07.552Z,21.7
2017-09-09T21:24:05.384Z,21.7
2017-09-09T21:26:04.650Z,21.7
2017-09-09T21:28:13.352Z,21.7
2017-09-09T21:30:05.039Z,21.7
2017-09-09T21:32:04.957Z,21.7
2017-09-09T21:34:04.785Z,21.7
2017-09-09T21:36:10.742Z,21.7
2017-09-09T21:38:05.155Z,21.6
2017-09-09T21:40:07.701Z,21.6
2017-09-09T21:42:05.403Z,21.6
2017-09-09T21:44:04.640Z,21.7
2017-09-09T21:46:05.133Z,21.7
2017-09-09T21:48:04.845Z,21.6
2017-09-09T21:50:08.143Z,21.6
2017-09-09T21:52:05.003Z,21.6
2017-09-09T21:54:04.749Z,21.6
2017-09-09T21:56:05.426Z,21.6
2017-09-09T21:58:05.477Z,21.6
2017-09-09T22:00:05.421Z,21.6
2017-09-09T22:02:05.150Z,21.6
2017-09-09T22:04:05.025Z,21.6
2017-09-09T22:06:05.246Z,21.6
2017-09-09T22:08:04.983Z,21.6
2017-09-09T22:10:07.438Z,21.6
2017-09-09T22:12:05.157Z,21.6
2017-09-09T22:14:04.995Z,21.6
2017-09-09T22:16:04.884Z,21.6
2017-09-09T22:18:04.778Z,21.6
2017-09-09T22:20:07.594Z,21.6
2017-09-09T22:22:05.268Z,21.6
2017-09-09T22:24:05.092Z,21.6
2017-09-09T22:26:06.296Z,21.6
2017-09-09T22:28:05.131Z,21.6
2017-09-09T22:30:04.911Z,21.6
2017-09-09T22:32:12.292Z,21.6
2017-09-09T22:34:05.206Z,21.6
2017-09-09T22:36:05.020Z,21.5
2017-09-09T22:38:04.787Z,21.5
2017-09-09T22:40:05.489Z,21.5
2017-09-09T22:42:07.792Z,21.5
2017-09-09T22:44:05.499Z,21.5
2017-09-09T22:46:04.897Z,21.5
2017-09-09T22:48:04.632Z,21.5
2017-09-09T22:50:05.303Z,21.5
2017-09-09T22:52:04.992Z,21.5
2017-09-09T22:54:04.737Z,21.5
2017-09-09T22:56:05.587Z,21.5
2017-09-09T22:58:05.331Z,21.5
2017-09-09T23:00:10.621Z,21.5
2017-09-09T23:02:10.339Z,21.5
2017-09-09T23:04:05.050Z,21.5
2017-09-09T23:06:04.745Z,21.5
2017-09-09T23:08:05.442Z,21.5
2017-09-09T23:10:05.586Z,21.5
2017-09-09T23:12:05.438Z,21.5
2017-09-09T23:14:04.632Z,21.5
2017-09-09T23:16:05.462Z,21.5
2017-09-09T23:18:04.883Z,21.5
2017-09-09T23:20:05.587Z,21.5
2017-09-09T23:22:05.008Z,21.5
2017-09-09T23:24:10.331Z,21.4
2017-09-09T23:26:04.992Z,21.4
2017-09-09T23:28:04.862Z,21.5
2017-09-09T23:30:05.554Z,21.5
2017-09-09T23:32:07.844Z,21.5
2017-09-09T23:34:05.621Z,21.5
2017-09-09T23:36:05.290Z,21.5
2017-09-09T23:38:05.022Z,21.5
2017-09-09T23:40:04.734Z,21.5
2017-09-09T23:42:10.627Z,21.5
2017-09-09T23:44:05.467Z,21.4
2017-09-09T23:46:05.220Z,21.4
2017-09-09T23:48:04.912Z,21.4
2017-09-09T23:50:04.624Z,21.4
2017-09-09T23:52:07.894Z,21.4
2017-09-09T23:54:05.574Z,21.4
2017-09-09T23:56:05.293Z,21.5
2017-09-09T23:58:05.041Z,21.5
